createdAt,value
2018-12-01T00:01:21.920Z,8.30
2018-12-01T00:03:55.482Z,8.20
2018-12-01T00:06:29.168Z,8.20
2018-12-01T00:09:02.896Z,8.20
2018-12-01T00:11:36.517Z,8.20
2018-12-01T00:14:11.044Z,8.20
2018-12-01T00:16:44.730Z,8.20
2018-12-01T00:19:19.154Z,8.20
2018-12-01T00:21:52.736Z,8.20
2018-12-01T00:24:26.551Z,8.10
2018-12-01T00:27:00.880Z,8.00
2018-12-01T00:29:34.581Z,8.00
2018-12-01T00:32:08.380Z,7.90
2018-12-01T00:34:42.673Z,7.80
2018-12-01T00:37:16.227Z,7.80
2018-12-01T00:39:49.831Z,7.70
2018-12-01T00:42:23.508Z,7.70
2018-12-01T00:44:57.139Z,7.80
2018-12-01T00:47:30.674Z,7.80
2018-12-01T00:50:04.510Z,7.80
2018-12-01T00:52:38.335Z,7.80
2018-12-01T00:55:11.906Z,7.80
2018-12-01T00:57:45.534Z,7.80
2018-12-01T01:00:19.200Z,7.90
2018-12-01T01:02:52.892Z,7.90
2018-12-01T01:05:27.456Z,7.90
2018-12-01T01:08:01.180Z,7.90
2018-12-01T01:10:34.820Z,8.00
2018-12-01T01:13:08.511Z,8.00
2018-12-01T01:15:42.058Z,8.10
2018-12-01T01:18:15.695Z,8.10
2018-12-01T01:20:49.451Z,8.10
2018-12-01T01:23:23.001Z,8.10
2018-12-01T01:25:56.612Z,8.20
2018-12-01T01:28:30.366Z,8.20
2018-12-01T01:31:04.091Z,8.20
2018-12-01T01:33:37.663Z,8.10
2018-12-01T01:36:11.293Z,8.10
2018-12-01T01:38:45.788Z,8.10
2018-12-01T01:41:19.524Z,8.10
2018-12-01T01:43:53.195Z,8.10
2018-12-01T01:46:27.642Z,8.10
2018-12-01T01:49:01.519Z,8.10
2018-12-01T01:51:35.236Z,8.10
2018-12-01T01:54:08.985Z,8.10
2018-12-01T01:56:42.979Z,8.10
2018-12-01T01:59:16.627Z,8.10
2018-12-01T02:01:50.329Z,8.10
2018-12-01T02:04:24.068Z,8.00
2018-12-01T02:06:57.652Z,7.90
2018-12-01T02:09:31.752Z,7.80
2018-12-01T02:12:05.589Z,7.80
2018-12-01T02:14:39.406Z,7.70
2018-12-01T02:17:13.931Z,7.70
2018-12-01T02:19:47.748Z,7.70
2018-12-01T02:22:21.528Z,7.80
2018-12-01T02:24:55.823Z,7.90
2018-12-01T02:27:29.535Z,7.90
2018-12-01T02:30:03.824Z,7.90
2018-12-01T02:32:38.163Z,7.80
2018-12-01T02:35:11.787Z,7.80
2018-12-01T02:37:46.338Z,7.80
2018-12-01T02:40:19.973Z,7.80
2018-12-01T02:42:53.716Z,7.80
2018-12-01T02:45:39.238Z,7.80
2018-12-01T02:48:12.767Z,7.70
2018-12-01T02:50:46.341Z,7.70
2018-12-01T02:53:20.005Z,7.70
2018-12-01T02:55:53.816Z,7.70
2018-12-01T02:58:28.295Z,7.70
2018-12-01T03:01:01.849Z,7.70
2018-12-01T03:03:35.630Z,7.80
2018-12-01T03:06:09.952Z,7.70
2018-12-01T03:08:43.578Z,7.70
2018-12-01T03:11:17.375Z,7.70
2018-12-01T03:13:51.078Z,7.60
2018-12-01T03:16:24.857Z,7.50
2018-12-01T03:18:58.443Z,7.40
2018-12-01T03:21:32.148Z,7.40
2018-12-01T03:24:05.995Z,7.40
2018-12-01T03:26:39.630Z,7.30
2018-12-01T03:29:13.287Z,7.30
2018-12-01T03:31:46.862Z,7.30
2018-12-01T03:34:21.413Z,7.20
2018-12-01T03:36:55.053Z,7.20
2018-12-01T03:39:29.753Z,7.10
2018-12-01T03:42:03.478Z,7.10
2018-12-01T03:44:37.089Z,7.10
2018-12-01T03:47:10.671Z,7.20
2018-12-01T03:49:44.352Z,7.20
2018-12-01T03:52:18.152Z,7.30
2018-12-01T03:54:51.735Z,7.20
2018-12-01T03:57:25.283Z,7.20
2018-12-01T03:59:58.931Z,7.10
2018-12-01T04:02:32.682Z,7.10
2018-12-01T04:05:07.292Z,7.10
2018-12-01T04:07:40.908Z,7.10
2018-12-01T04:10:14.515Z,7.10
2018-12-01T04:12:48.220Z,7.20
2018-12-01T04:15:21.995Z,7.20
2018-12-01T04:17:55.572Z,7.30
2018-12-01T04:20:29.225Z,7.30
2018-12-01T04:23:02.890Z,7.30
2018-12-01T04:25:36.518Z,7.40
2018-12-01T04:28:10.084Z,7.40
2018-12-01T04:30:43.794Z,7.30
2018-12-01T04:33:17.539Z,7.30
2018-12-01T04:35:51.043Z,7.30
2018-12-01T04:38:24.620Z,7.30
2018-12-01T04:40:58.250Z,7.30
2018-12-01T04:43:31.906Z,7.30
2018-12-01T04:46:05.464Z,7.30
2018-12-01T04:48:40.105Z,7.30
2018-12-01T04:51:13.708Z,7.20
2018-12-01T04:53:48.053Z,7.30
2018-12-01T04:56:21.726Z,7.30
2018-12-01T04:58:56.090Z,7.30
2018-12-01T05:01:29.937Z,7.30
2018-12-01T05:04:03.518Z,7.30
2018-12-01T05:06:37.813Z,7.20
2018-12-01T05:09:11.320Z,7.20
2018-12-01T05:11:44.971Z,7.20
2018-12-01T05:14:18.597Z,7.20
2018-12-01T05:16:53.027Z,7.00
2018-12-01T05:19:26.786Z,7.00
2018-12-01T05:22:00.311Z,6.90
2018-12-01T05:24:34.061Z,6.80
2018-12-01T05:27:07.659Z,6.80
2018-12-01T05:29:41.236Z,6.80
2018-12-01T05:32:14.975Z,6.70
2018-12-01T05:34:48.722Z,6.60
2018-12-01T05:37:22.598Z,6.70
2018-12-01T05:39:57.342Z,6.70
2018-12-01T05:42:31.131Z,6.60
2018-12-01T05:45:04.686Z,6.60
2018-12-01T05:47:38.408Z,6.40
2018-12-01T05:50:12.905Z,6.30
2018-12-01T05:52:46.620Z,6.20
2018-12-01T05:55:20.470Z,6.20
2018-12-01T05:57:54.136Z,6.10
2018-12-01T06:00:27.837Z,6.10
2018-12-01T06:03:01.536Z,6.10
2018-12-01T06:05:35.238Z,6.00
2018-12-01T06:08:08.918Z,6.00
2018-12-01T06:10:42.649Z,5.90
2018-12-01T06:13:16.275Z,5.90
2018-12-01T06:15:50.783Z,5.80
2018-12-01T06:18:24.516Z,5.80
2018-12-01T06:20:58.143Z,5.80
2018-12-01T06:23:32.503Z,5.80
2018-12-01T06:26:06.095Z,5.80
2018-12-01T06:28:39.870Z,5.90
2018-12-01T06:31:14.421Z,5.70
2018-12-01T06:33:48.077Z,5.70
2018-12-01T06:36:21.692Z,5.60
2018-12-01T06:38:55.263Z,5.60
2018-12-01T06:41:29.753Z,5.50
2018-12-01T06:44:04.198Z,5.60
2018-12-01T06:46:37.855Z,5.70
2018-12-01T06:49:11.546Z,5.80
2018-12-01T06:51:45.136Z,5.80
2018-12-01T06:54:18.741Z,5.90
2018-12-01T06:56:53.181Z,6.10
2018-12-01T06:59:26.731Z,6.10
2018-12-01T07:02:00.277Z,6.20
2018-12-01T07:04:33.918Z,6.30
2018-12-01T07:07:08.419Z,6.40
2018-12-01T07:09:42.138Z,6.40
2018-12-01T07:12:15.965Z,6.40
2018-12-01T07:14:49.718Z,6.50
2018-12-01T07:17:23.360Z,6.50
2018-12-01T07:19:57.185Z,6.50
2018-12-01T07:22:30.807Z,6.50
2018-12-01T07:25:04.450Z,6.50
2018-12-01T07:27:38.186Z,6.50
2018-12-01T07:30:12.003Z,6.60
2018-12-01T07:32:45.688Z,6.60
2018-12-01T07:35:19.413Z,6.60
2018-12-01T07:37:53.189Z,6.70
2018-12-01T07:40:26.916Z,6.80
2018-12-01T07:43:00.631Z,6.80
2018-12-01T07:45:34.251Z,6.90
2018-12-01T07:48:07.984Z,6.90
2018-12-01T07:50:42.536Z,6.90
2018-12-01T07:53:17.488Z,6.90
2018-12-01T07:55:50.235Z,6.90
2018-12-01T07:58:23.956Z,7.00
2018-12-01T08:00:57.644Z,7.00
2018-12-01T08:03:31.320Z,7.10
2018-12-01T08:06:05.202Z,7.20
2018-12-01T08:08:39.001Z,7.20
2018-12-01T08:11:13.418Z,7.30
2018-12-01T08:13:48.002Z,7.40
2018-12-01T08:16:21.682Z,7.40
2018-12-01T08:18:55.428Z,7.50
2018-12-01T08:21:29.909Z,7.50
2018-12-01T08:24:04.504Z,7.50
2018-12-01T08:26:38.214Z,7.50
2018-12-01T08:29:11.842Z,7.30
2018-12-01T08:31:45.716Z,7.30
2018-12-01T08:34:19.439Z,7.40
2018-12-01T08:36:54.301Z,7.70
2018-12-01T08:39:28.058Z,8.10
2018-12-01T08:42:01.893Z,8.40
2018-12-01T08:44:35.720Z,8.60
2018-12-01T08:47:09.510Z,8.90
2018-12-01T08:49:44.477Z,9.00
2018-12-01T08:52:17.134Z,9.10
2018-12-01T08:54:51.508Z,9.30
2018-12-01T08:57:25.295Z,9.20
2018-12-01T08:59:59.054Z,9.10
2018-12-01T09:02:32.753Z,9.40
2018-12-01T09:05:06.556Z,9.70
2018-12-01T09:07:40.284Z,9.80
2018-12-01T09:10:14.084Z,9.70
2018-12-01T09:12:47.692Z,9.80
2018-12-01T09:15:21.468Z,10.00
2018-12-01T09:17:55.082Z,10.20
2018-12-01T09:20:28.756Z,10.30
2018-12-01T09:23:02.573Z,10.40
2018-12-01T09:25:36.186Z,10.40
2018-12-01T09:28:09.843Z,10.10
2018-12-01T09:30:43.453Z,10.10
2018-12-01T09:33:17.172Z,10.10
2018-12-01T09:35:50.730Z,10.20
2018-12-01T09:38:24.441Z,10.20
2018-12-01T09:40:58.235Z,10.10
2018-12-01T09:43:31.976Z,10.10
2018-12-01T09:46:05.684Z,10.60
2018-12-01T09:48:39.360Z,10.80
2018-12-01T09:51:13.944Z,11.10
2018-12-01T09:53:47.619Z,11.00
2018-12-01T09:56:21.457Z,11.20
2018-12-01T09:58:55.153Z,12.00
2018-12-01T10:01:28.893Z,13.00
2018-12-01T10:04:02.687Z,15.80
2018-12-01T10:06:36.401Z,18.70
2018-12-01T10:09:10.130Z,21.40
2018-12-01T10:11:44.632Z,24.20
2018-12-01T10:14:18.495Z,25.50
2018-12-01T10:16:52.276Z,26.40
2018-12-01T10:19:26.031Z,24.20
2018-12-01T10:21:59.793Z,23.20
2018-12-01T10:24:33.649Z,21.50
2018-12-01T10:27:07.355Z,21.00
2018-12-01T10:29:41.145Z,21.00
2018-12-01T10:32:14.868Z,21.50
2018-12-01T10:34:48.746Z,19.30
2018-12-01T10:37:22.565Z,17.20
2018-12-01T10:39:56.423Z,14.30
2018-12-01T10:42:31.051Z,11.90
2018-12-01T10:45:04.803Z,11.80
2018-12-01T10:47:38.498Z,11.60
2018-12-01T10:50:12.280Z,12.10
2018-12-01T10:52:46.055Z,13.40
2018-12-01T10:55:19.908Z,14.00
2018-12-01T10:57:53.479Z,15.50
2018-12-01T11:00:27.322Z,18.00
2018-12-01T11:03:01.745Z,21.40
2018-12-01T11:05:36.223Z,22.40
2018-12-01T11:08:09.919Z,22.30
2018-12-01T11:10:43.801Z,22.60
2018-12-01T11:13:17.613Z,23.50
2018-12-01T11:15:51.429Z,24.00
2018-12-01T11:18:26.074Z,18.10
2018-12-01T11:20:59.962Z,18.10
2018-12-01T11:23:34.353Z,19.20
2018-12-01T11:26:08.228Z,19.10
2018-12-01T11:28:41.815Z,19.20
2018-12-01T11:31:15.418Z,19.10
2018-12-01T11:33:49.249Z,20.00
2018-12-01T11:36:22.967Z,19.20
2018-12-01T11:38:56.731Z,19.10
2018-12-01T11:41:31.060Z,18.00
2018-12-01T11:44:04.784Z,18.00
2018-12-01T11:46:38.597Z,16.10
2018-12-01T11:49:12.269Z,15.20
2018-12-01T11:51:46.107Z,14.40
2018-12-01T11:54:19.860Z,13.60
2018-12-01T11:56:53.691Z,12.90
2018-12-01T11:59:28.232Z,12.00
2018-12-01T12:02:02.009Z,12.00
2018-12-01T12:04:35.746Z,11.80
2018-12-01T12:07:09.500Z,11.60
2018-12-01T12:09:43.367Z,11.60
2018-12-01T12:12:17.760Z,11.70
2018-12-01T12:14:52.311Z,11.50
2018-12-01T12:17:25.792Z,11.40
2018-12-01T12:19:59.564Z,11.40
2018-12-01T12:22:34.114Z,11.40
2018-12-01T12:25:07.900Z,11.40
2018-12-01T12:27:41.580Z,11.60
2018-12-01T12:30:15.320Z,11.50
2018-12-01T12:32:49.141Z,11.50
2018-12-01T12:35:22.955Z,11.40
2018-12-01T12:37:56.732Z,11.40
2018-12-01T12:40:31.378Z,11.30
2018-12-01T12:43:05.834Z,11.30
2018-12-01T12:45:39.471Z,11.30
2018-12-01T12:48:13.236Z,11.40
2018-12-01T12:50:52.983Z,11.50
2018-12-01T12:53:21.369Z,11.50
2018-12-01T12:55:55.063Z,11.70
2018-12-01T12:58:28.799Z,11.60
2018-12-01T13:01:02.515Z,11.50
2018-12-01T13:03:36.251Z,11.60
2018-12-01T13:06:10.086Z,11.40
2018-12-01T13:08:43.935Z,11.50
2018-12-01T13:11:17.721Z,11.40
2018-12-01T13:13:51.420Z,11.40
2018-12-01T13:16:25.798Z,11.30
2018-12-01T13:18:59.506Z,11.50
2018-12-01T13:21:33.198Z,11.40
2018-12-01T13:24:07.012Z,11.30
2018-12-01T13:26:40.834Z,11.30
2018-12-01T13:29:14.726Z,11.20
2018-12-01T13:31:48.295Z,11.10
2018-12-01T13:34:22.082Z,11.10
2018-12-01T13:36:56.676Z,11.10
2018-12-01T13:39:30.412Z,11.00
2018-12-01T13:42:04.229Z,11.00
2018-12-01T13:44:38.032Z,10.90
2018-12-01T13:47:11.949Z,10.90
2018-12-01T13:49:46.461Z,10.80
2018-12-01T13:52:20.256Z,10.80
2018-12-01T13:54:54.689Z,10.90
2018-12-01T13:57:29.309Z,11.00
2018-12-01T14:00:03.067Z,10.90
2018-12-01T14:02:37.749Z,10.90
2018-12-01T14:05:11.583Z,10.90
2018-12-01T14:07:45.343Z,10.90
2018-12-01T14:10:19.792Z,11.00
2018-12-01T14:12:53.412Z,11.00
2018-12-01T14:15:27.122Z,11.00
2018-12-01T14:18:01.023Z,11.00
2018-12-01T14:20:34.799Z,11.10
2018-12-01T14:23:08.584Z,11.00
2018-12-01T14:25:42.273Z,11.00
2018-12-01T14:28:15.855Z,11.00
2018-12-01T14:30:50.231Z,10.90
2018-12-01T14:33:24.069Z,10.80
2018-12-01T14:35:57.895Z,10.90
2018-12-01T14:38:31.560Z,10.90
2018-12-01T14:41:05.400Z,10.90
2018-12-01T14:43:39.117Z,10.90
2018-12-01T14:46:12.902Z,10.90
2018-12-01T14:48:46.703Z,10.90
2018-12-01T14:51:20.504Z,10.80
2018-12-01T14:53:54.200Z,10.80
2018-12-01T14:56:28.048Z,10.70
2018-12-01T14:59:01.871Z,10.70
2018-12-01T15:01:35.529Z,10.60
2018-12-01T15:04:09.306Z,10.60
2018-12-01T15:06:43.105Z,10.60
2018-12-01T15:09:16.759Z,10.60
2018-12-01T15:11:50.550Z,10.60
2018-12-01T15:14:24.292Z,10.60
2018-12-01T15:16:58.744Z,10.60
2018-12-01T15:19:32.511Z,10.50
2018-12-01T15:22:06.254Z,10.60
2018-12-01T15:24:40.109Z,10.60
2018-12-01T15:27:14.699Z,10.60
2018-12-01T15:29:48.593Z,10.60
2018-12-01T15:32:23.022Z,10.60
2018-12-01T15:34:56.832Z,10.50
2018-12-01T15:37:30.677Z,10.50
2018-12-01T15:40:05.275Z,10.50
2018-12-01T15:42:38.995Z,10.50
2018-12-01T15:45:12.888Z,10.50
2018-12-01T15:47:46.710Z,10.50
2018-12-01T15:50:20.480Z,10.50
2018-12-01T15:52:54.266Z,10.50
2018-12-01T15:55:28.903Z,10.50
2018-12-01T15:58:02.615Z,10.50
2018-12-01T16:00:37.157Z,10.40
2018-12-01T16:03:10.795Z,10.40
2018-12-01T16:05:44.487Z,10.40
2018-12-01T16:08:18.672Z,10.40
2018-12-01T16:10:51.951Z,10.30
2018-12-01T16:13:25.790Z,10.30
2018-12-01T16:15:59.563Z,10.30
2018-12-01T16:18:33.302Z,10.20
2018-12-01T16:21:07.210Z,10.10
2018-12-01T16:23:41.603Z,9.90
2018-12-01T16:26:16.002Z,9.90
2018-12-01T16:28:49.700Z,9.90
2018-12-01T16:31:23.355Z,9.80
2018-12-01T16:33:57.004Z,9.80
2018-12-01T16:36:30.585Z,9.80
2018-12-01T16:39:04.318Z,9.80
2018-12-01T16:41:37.955Z,9.70
2018-12-01T16:44:12.408Z,9.70
2018-12-01T16:46:46.289Z,9.70
2018-12-01T16:49:20.972Z,9.60
2018-12-01T16:51:54.806Z,9.60
2018-12-01T16:54:29.343Z,9.40
2018-12-01T16:57:03.870Z,9.40
2018-12-01T16:59:37.427Z,9.30
2018-12-01T17:02:11.308Z,9.40
2018-12-01T17:04:45.093Z,9.40
2018-12-01T17:07:18.706Z,9.40
2018-12-01T17:09:52.357Z,9.30
2018-12-01T17:12:26.197Z,9.30
2018-12-01T17:15:00.747Z,9.20
2018-12-01T17:17:34.531Z,9.20
2018-12-01T17:20:08.272Z,9.10
2018-12-01T17:22:41.869Z,9.20
2018-12-01T17:25:15.673Z,9.10
2018-12-01T17:27:49.298Z,9.10
2018-12-01T17:30:22.958Z,9.10
2018-12-01T17:32:56.732Z,9.10
2018-12-01T17:35:30.646Z,9.10
2018-12-01T17:38:04.362Z,9.10
2018-12-01T17:40:38.287Z,9.10
2018-12-01T17:43:11.969Z,9.10
2018-12-01T17:45:45.801Z,9.00
2018-12-01T17:48:19.524Z,8.90
2018-12-01T17:50:53.103Z,8.90
2018-12-01T17:53:26.867Z,8.90
2018-12-01T17:56:00.654Z,8.90
2018-12-01T17:58:34.337Z,8.90
2018-12-01T18:01:08.996Z,8.90
2018-12-01T18:03:42.532Z,8.90
2018-12-01T18:06:16.889Z,8.80
2018-12-01T18:08:50.566Z,8.80
2018-12-01T18:11:29.419Z,8.80
2018-12-01T18:13:58.028Z,8.80
2018-12-01T18:16:31.765Z,8.80
2018-12-01T18:19:05.401Z,8.80
2018-12-01T18:21:39.033Z,8.80
2018-12-01T18:24:12.680Z,8.80
2018-12-01T18:26:46.319Z,8.80
2018-12-01T18:29:20.904Z,8.80
2018-12-01T18:31:54.685Z,8.80
2018-12-01T18:34:28.497Z,8.80
2018-12-01T18:37:02.210Z,8.70
2018-12-01T18:39:35.976Z,8.70
2018-12-01T18:42:09.785Z,8.60
2018-12-01T18:44:43.550Z,8.70
2018-12-01T18:47:18.125Z,8.60
2018-12-01T18:49:51.929Z,8.60
2018-12-01T18:52:25.756Z,8.70
2018-12-01T18:55:00.154Z,8.70
2018-12-01T18:57:33.756Z,8.60
2018-12-01T19:00:07.527Z,8.70
2018-12-01T19:02:41.190Z,8.60
2018-12-01T19:05:14.849Z,8.60
2018-12-01T19:07:48.469Z,8.60
2018-12-01T19:10:22.355Z,8.60
2018-12-01T19:12:56.897Z,8.60
2018-12-01T19:15:30.608Z,8.60
2018-12-01T19:18:04.495Z,8.60
2018-12-01T19:20:38.373Z,8.70
2018-12-01T19:23:12.114Z,8.70
2018-12-01T19:25:45.958Z,8.70
2018-12-01T19:28:19.709Z,8.70
2018-12-01T19:30:53.450Z,8.80
2018-12-01T19:33:27.133Z,8.80
2018-12-01T19:36:00.823Z,8.90
2018-12-01T19:38:34.597Z,8.90
2018-12-01T19:41:08.270Z,8.90
2018-12-01T19:43:42.078Z,8.80
2018-12-01T19:46:15.736Z,8.80
2018-12-01T19:48:49.562Z,8.80
2018-12-01T19:51:23.253Z,8.80
2018-12-01T19:53:57.057Z,8.80
2018-12-01T19:56:30.711Z,8.90
2018-12-01T19:59:04.431Z,8.90
2018-12-01T20:01:38.093Z,8.90
2018-12-01T20:04:12.527Z,8.80
2018-12-01T20:06:46.226Z,8.70
2018-12-01T20:09:20.484Z,8.70
2018-12-01T20:11:54.275Z,8.70
2018-12-01T20:14:27.981Z,8.70
2018-12-01T20:17:01.605Z,8.60
2018-12-01T20:19:35.240Z,8.60
2018-12-01T20:22:08.920Z,8.60
2018-12-01T20:24:42.749Z,8.70
2018-12-01T20:27:16.394Z,8.70
2018-12-01T20:29:50.854Z,8.80
2018-12-01T20:32:24.576Z,8.80
2018-12-01T20:34:59.325Z,8.90
2018-12-01T20:37:33.073Z,8.90
2018-12-01T20:40:06.739Z,9.00
2018-12-01T20:42:41.158Z,9.10
2018-12-01T20:45:15.546Z,9.10
2018-12-01T20:47:49.136Z,9.00
2018-12-01T20:50:23.631Z,9.00
2018-12-01T20:52:57.448Z,9.00
2018-12-01T20:55:31.231Z,9.00
2018-12-01T20:58:04.989Z,9.00
2018-12-01T21:00:38.739Z,9.00
2018-12-01T21:03:12.469Z,9.00
2018-12-01T21:05:46.244Z,9.00
2018-12-01T21:08:19.996Z,9.00
2018-12-01T21:10:53.776Z,8.90
2018-12-01T21:13:27.552Z,8.90
2018-12-01T21:16:01.225Z,8.90
2018-12-01T21:18:35.055Z,8.90
2018-12-01T21:21:08.783Z,8.80
2018-12-01T21:23:42.440Z,8.80
2018-12-01T21:26:16.877Z,8.80
2018-12-01T21:28:50.705Z,8.80
2018-12-01T21:31:24.488Z,8.70
2018-12-01T21:33:58.224Z,8.80
2018-12-01T21:36:32.104Z,8.80
2018-12-01T21:39:06.715Z,8.90
2018-12-01T21:41:40.411Z,8.90
2018-12-01T21:44:14.276Z,8.90
2018-12-01T21:46:48.027Z,9.00
2018-12-01T21:49:21.800Z,8.90
2018-12-01T21:51:55.517Z,8.80
2018-12-01T21:54:29.453Z,8.80
2018-12-01T21:57:03.182Z,8.80
2018-12-01T21:59:36.929Z,8.80
2018-12-01T22:02:10.693Z,8.80
2018-12-01T22:04:44.402Z,8.80
2018-12-01T22:07:18.183Z,8.80
2018-12-01T22:09:52.817Z,8.80
2018-12-01T22:12:26.633Z,8.80
2018-12-01T22:15:00.479Z,8.90
2018-12-01T22:17:34.231Z,8.80
2018-12-01T22:20:08.087Z,8.80
2018-12-01T22:22:42.091Z,8.80
2018-12-01T22:25:15.840Z,8.80
2018-12-01T22:27:49.604Z,8.80
2018-12-01T22:30:23.520Z,8.80
2018-12-01T22:32:57.288Z,8.70
2018-12-01T22:35:30.929Z,8.60
2018-12-01T22:38:04.621Z,8.60
2018-12-01T22:40:38.345Z,8.60
2018-12-01T22:43:13.041Z,8.60
2018-12-01T22:45:46.654Z,8.60
2018-12-01T22:48:20.328Z,8.60
2018-12-01T22:50:53.883Z,8.70
2018-12-01T22:53:27.463Z,8.70
2018-12-01T22:56:01.228Z,8.60
2018-12-01T22:58:35.718Z,8.60
2018-12-01T23:01:09.481Z,8.60
2018-12-01T23:03:43.178Z,8.60
2018-12-01T23:06:16.810Z,8.70
2018-12-01T23:08:50.637Z,8.70
2018-12-01T23:11:24.170Z,8.70
2018-12-01T23:13:57.860Z,8.70
2018-12-01T23:16:31.487Z,8.70
2018-12-01T23:19:06.045Z,8.60
2018-12-01T23:21:39.897Z,8.60
2018-12-01T23:24:13.721Z,8.60
2018-12-01T23:26:47.481Z,8.70
2018-12-01T23:29:21.284Z,8.60
2018-12-01T23:31:55.028Z,8.70
2018-12-01T23:34:29.644Z,8.70
2018-12-01T23:37:04.208Z,8.70
2018-12-01T23:39:37.780Z,8.60
2018-12-01T23:42:12.280Z,8.60
2018-12-01T23:44:46.006Z,8.60
2018-12-01T23:47:19.705Z,8.70
2018-12-01T23:49:53.482Z,8.70
2018-12-01T23:52:28.146Z,8.70
2018-12-01T23:55:01.889Z,8.70
2018-12-01T23:57:35.701Z,8.70
